Time;durP1;ratioP1;P1;durP2;ratioP2;P2;SDS_P1;SDS_P2;PMS_P1;PMS_P2;Temp;Humidity;BMP_temperature;BMP_pressure;BME280_temperature;BME280_humidity;BME280_pressure;Samples;Min_cycle;Max_cycle;Signal;HPM_P1;HPM_P2
2022/09/01 00:00:47;;;;;;;2.22;2.03;;;;;;;;;;4990385;28;98958;-71
2022/09/01 00:03:18;;;;;;;2.13;1.92;;;;;;;;;;4990863;28;99317;-71
2022/09/01 00:05:45;;;;;;;2.25;2.05;;;;;;;;;;4990779;28;99255;-71
2022/09/01 00:08:12;;;;;;;3.67;1.95;;;;;;;;;;4991123;28;99686;-71
2022/09/01 00:10:43;;;;;;;4.53;1.73;;;;;;;;;;4990433;28;100284;-70
2022/09/01 00:13:09;;;;;;;1.60;1.48;;;;;;;;;;4991048;28;98543;-71
2022/09/01 00:15:36;;;;;;;4.93;1.88;;;;;;;;;;4990389;28;99424;-71
2022/09/01 00:18:02;;;;;;;2.38;2.17;;;;;;;;;;4990648;28;99519;-71
2022/09/01 00:20:29;;;;;;;8.00;2.15;;;;;;;;;;4994587;28;98612;-71
2022/09/01 00:22:56;;;;;;;5.68;2.40;;;;;;;;;;4990144;28;98789;-71
2022/09/01 00:25:23;;;;;;;2.33;1.92;;;;;;;;;;4991783;28;98563;-71
2022/09/01 00:27:50;;;;;;;2.53;2.17;;;;;;;;;;4990970;28;100196;-71
2022/09/01 00:30:20;;;;;;;3.63;2.45;;;;;;;;;;4995416;28;101838;-71
2022/09/01 00:32:46;;;;;;;2.28;2.08;;;;;;;;;;5009662;28;98677;-71
2022/09/01 00:35:15;;;;;;;3.65;2.08;;;;;;;;;;4997039;28;101694;-71
2022/09/01 00:37:41;;;;;;;3.75;2.30;;;;;;;;;;4989320;28;99400;-71
2022/09/01 00:40:10;;;;;;;3.95;2.83;;;;;;;;;;4994429;28;98534;-71
2022/09/01 00:42:38;;;;;;;5.85;2.50;;;;;;;;;;4990136;28;99307;-71
2022/09/01 00:45:06;;;;;;;2.38;2.13;;;;;;;;;;4991003;28;98533;-71
2022/09/01 00:47:34;;;;;;;3.53;2.25;;;;;;;;;;4991041;28;99062;-71
2022/09/01 00:50:02;;;;;;;4.45;2.35;;;;;;;;;;4989232;28;100634;-71
2022/09/01 00:52:37;;;;;;;4.55;2.17;;;;;;;;;;4991057;28;98499;-71
2022/09/01 00:55:10;;;;;;;3.40;2.33;;;;;;;;;;4990399;28;99134;-71
2022/09/01 00:57:36;;;;;;;;;;;;;;;;;;4990194;28;99135;-71
2022/09/01 01:00:09;;;;;;;2.42;2.22;;;;;;;;;;4991646;28;117402;-71
2022/09/01 01:02:37;;;;;;;4.30;2.60;;;;;;;;;;4992056;28;99020;-71
2022/09/01 01:05:04;;;;;;;2.30;2.20;;;;;;;;;;4989940;28;98989;-71
2022/09/01 01:07:37;;;;;;;7.18;2.45;;;;;;;;;;4989671;28;99150;-71
2022/09/01 01:10:05;;;;;;;6.00;2.42;;;;;;;;;;4990264;28;99506;-71
2022/09/01 01:12:34;;;;;;;3.35;2.72;;;;;;;;;;4990725;28;97796;-71
2022/09/01 01:15:01;;;;;;;4.50;2.65;;;;;;;;;;4990991;28;98457;-71
2022/09/01 01:17:28;;;;;;;7.28;2.30;;;;;;;;;;4988723;28;99283;-71
2022/09/01 01:23:02;;;;;;;3.45;2.50;;;;;;;;;;4987777;28;101793;-71
2022/09/01 01:25:33;;;;;;;2.25;2.08;;;;;;;;;;4991370;28;101458;-71
2022/09/01 01:28:04;;;;;;;2.47;2.20;;;;;;;;;;4988634;28;101156;-71
2022/09/01 01:30:32;;;;;;;3.95;2.42;;;;;;;;;;4988920;28;99283;-71
2022/09/01 01:33:00;;;;;;;3.17;2.25;;;;;;;;;;4988625;28;98541;-71
2022/09/01 01:35:30;;;;;;;9.57;2.72;;;;;;;;;;4989340;28;99827;-71
2022/09/01 01:37:57;;;;;;;7.28;3.85;;;;;;;;;;4990356;28;98650;-71
2022/09/01 01:40:23;;;;;;;5.28;2.65;;;;;;;;;;4988309;28;98682;-71
2022/09/01 01:42:51;;;;;;;3.10;2.20;;;;;;;;;;4988828;28;99968;-71
2022/09/01 01:45:19;;;;;;;3.00;2.40;;;;;;;;;;4987522;28;102024;-71
2022/09/01 01:47:51;;;;;;;11.38;2.67;;;;;;;;;;4992640;28;99087;-71
2022/09/01 01:50:20;;;;;;;4.95;2.30;;;;;;;;;;4989272;28;99618;-71
2022/09/01 01:52:47;;;;;;;6.25;3.15;;;;;;;;;;4988067;28;99006;-71
2022/09/01 01:55:18;;;;;;;5.93;2.50;;;;;;;;;;5022166;28;98804;-71
2022/09/01 01:57:48;;;;;;;3.58;2.90;;;;;;;;;;4988154;28;101701;-71
2022/09/01 02:00:18;;;;;;;6.20;2.60;;;;;;;;;;4987752;28;98637;-71
2022/09/01 02:02:55;;;;;;;3.00;2.38;;;;;;;;;;4992332;28;101521;-71
2022/09/01 02:05:24;;;;;;;2.80;2.17;;;;;;;;;;4991697;28;99258;-71
2022/09/01 02:07:58;;;;;;;3.97;2.55;;;;;;;;;;4991733;28;98829;-71
2022/09/01 02:10:29;;;;;;;6.07;2.30;;;;;;;;;;4994209;28;101174;-71
2022/09/01 02:13:02;;;;;;;7.72;2.45;;;;;;;;;;4993236;28;98487;-71
2022/09/01 02:15:33;;;;;;;4.10;2.50;;;;;;;;;;4991012;28;101107;-71
2022/09/01 02:18:00;;;;;;;7.47;2.60;;;;;;;;;;4990806;28;99892;-71
2022/09/01 02:20:31;;;;;;;3.25;2.95;;;;;;;;;;4992133;28;98519;-71
2022/09/01 02:23:09;;;;;;;2.55;2.17;;;;;;;;;;4991568;28;99069;-71
2022/09/01 02:25:43;;;;;;;3.80;2.45;;;;;;;;;;4991564;28;99271;-71
2022/09/01 02:28:30;;;;;;;3.00;2.58;;;;;;;;;;4992983;28;97750;-71
2022/09/01 02:31:01;;;;;;;4.57;2.38;;;;;;;;;;5037950;27;100585;-71
2022/09/01 02:33:29;;;;;;;4.30;2.58;;;;;;;;;;5014890;28;100109;-70
2022/09/01 02:35:57;;;;;;;2.70;2.35;;;;;;;;;;5010383;28;99407;-71
2022/09/01 02:38:28;;;;;;;6.47;2.28;;;;;;;;;;5012657;28;99406;-71
2022/09/01 02:40:57;;;;;;;5.07;2.63;;;;;;;;;;5002900;28;98614;-71
2022/09/01 02:43:27;;;;;;;7.30;2.58;;;;;;;;;;5024111;28;99970;-71
2022/09/01 02:45:56;;;;;;;5.50;2.70;;;;;;;;;;4992224;28;99226;-71
2022/09/01 02:48:25;;;;;;;2.80;2.60;;;;;;;;;;4991678;28;98506;-71
2022/09/01 02:50:52;;;;;;;6.45;2.90;;;;;;;;;;4991977;28;98695;-71
2022/09/01 02:53:19;;;;;;;2.60;2.25;;;;;;;;;;4995985;28;99350;-71
2022/09/01 02:55:45;;;;;;;3.08;2.42;;;;;;;;;;4991228;28;100075;-71
2022/09/01 02:58:15;;;;;;;5.45;2.80;;;;;;;;;;4992054;28;100238;-71
2022/09/01 03:00:42;;;;;;;7.60;2.35;;;;;;;;;;5024131;28;99266;-71
2022/09/01 03:03:11;;;;;;;7.60;2.40;;;;;;;;;;4990651;28;100415;-70
2022/09/01 03:05:39;;;;;;;2.40;2.20;;;;;;;;;;4991741;28;100249;-70
2022/09/01 03:08:09;;;;;;;3.83;2.88;;;;;;;;;;4990911;28;98596;-69
2022/09/01 03:10:40;;;;;;;3.20;2.90;;;;;;;;;;4989843;28;100846;-70
2022/09/01 03:13:11;;;;;;;5.00;2.90;;;;;;;;;;4991919;28;99330;-70
2022/09/01 03:15:38;;;;;;;2.30;2.10;;;;;;;;;;4994910;28;98551;-71
2022/09/01 03:18:05;;;;;;;8.48;2.20;;;;;;;;;;4990228;28;99648;-69
2022/09/01 03:20:33;;;;;;;7.72;2.38;;;;;;;;;;4992306;28;98599;-72
2022/09/01 03:23:03;;;;;;;2.47;2.10;;;;;;;;;;4989386;28;99971;-69
2022/09/01 03:25:31;;;;;;;9.88;2.35;;;;;;;;;;4989209;28;102472;-69
2022/09/01 03:28:00;;;;;;;4.13;2.65;;;;;;;;;;4992155;28;98484;-70
2022/09/01 03:30:29;;;;;;;3.83;2.10;;;;;;;;;;4991002;28;98929;-70
2022/09/01 03:32:56;;;;;;;3.42;2.05;;;;;;;;;;4989827;28;102032;-71
2022/09/01 03:35:24;;;;;;;2.80;2.60;;;;;;;;;;4992266;28;98504;-71
2022/09/01 03:37:51;;;;;;;2.83;2.28;;;;;;;;;;4993391;28;101480;-71
2022/09/01 03:40:17;;;;;;;2.67;2.40;;;;;;;;;;4990192;28;98983;-70
2022/09/01 03:42:44;;;;;;;4.45;2.85;;;;;;;;;;5007561;28;101287;-71
2022/09/01 03:45:14;;;;;;;2.83;2.20;;;;;;;;;;4990001;28;101106;-71
2022/09/01 03:47:42;;;;;;;6.60;2.35;;;;;;;;;;4990423;28;99796;-71
2022/09/01 03:50:20;;;;;;;3.72;2.35;;;;;;;;;;4990774;28;101403;-71
2022/09/01 03:52:49;;;;;;;3.78;2.30;;;;;;;;;;4988871;28;101528;-72
2022/09/01 03:55:22;;;;;;;4.97;2.40;;;;;;;;;;4990422;28;98513;-72
2022/09/01 03:57:49;;;;;;;4.28;2.92;;;;;;;;;;4990251;28;101279;-71
2022/09/01 04:00:21;;;;;;;2.85;2.55;;;;;;;;;;4992552;28;101554;-72
2022/09/01 04:02:49;;;;;;;5.30;2.58;;;;;;;;;;4990247;28;100873;-72
2022/09/01 04:05:27;;;;;;;4.20;2.30;;;;;;;;;;4990553;28;101252;-71
2022/09/01 04:07:56;;;;;;;2.50;2.40;;;;;;;;;;4990044;28;98128;-70
2022/09/01 04:10:23;;;;;;;3.80;2.70;;;;;;;;;;4989713;28;98622;-69
2022/09/01 04:12:49;;;;;;;10.65;2.50;;;;;;;;;;4989604;28;101950;-70
2022/09/01 04:15:16;;;;;;;4.70;2.55;;;;;;;;;;4990483;28;99758;-69
2022/09/01 04:18:08;;;;;;;2.67;2.47;;;;;;;;;;4989872;28;100624;-69
2022/09/01 04:20:38;;;;;;;6.57;2.60;;;;;;;;;;4989042;28;99298;-70
2022/09/01 04:23:09;;;;;;;5.07;3.03;;;;;;;;;;4994531;28;98654;-69
2022/09/01 04:25:37;;;;;;;4.78;2.30;;;;;;;;;;4989489;28;100303;-69
2022/09/01 04:28:11;;;;;;;7.30;2.28;;;;;;;;;;4990432;28;98417;-70
2022/09/01 04:30:39;;;;;;;6.13;2.42;;;;;;;;;;5033418;27;100645;-70
2022/09/01 04:33:11;;;;;;;7.13;2.40;;;;;;;;;;5044057;27;100698;-70
2022/09/01 04:35:39;;;;;;;8.27;2.83;;;;;;;;;;5008702;28;98604;-69
2022/09/01 04:38:07;;;;;;;5.43;2.28;;;;;;;;;;5011376;28;99652;-70
2022/09/01 04:40:40;;;;;;;3.47;3.17;;;;;;;;;;4995133;28;101102;-70
2022/09/01 04:43:07;;;;;;;5.88;2.60;;;;;;;;;;4990707;28;99026;-70
2022/09/01 04:45:35;;;;;;;3.35;2.65;;;;;;;;;;5025842;28;99241;-70
2022/09/01 04:48:02;;;;;;;5.75;2.58;;;;;;;;;;4989230;28;98707;-70
2022/09/01 04:50:31;;;;;;;4.00;2.42;;;;;;;;;;4989050;28;101841;-70
2022/09/01 04:53:18;;;;;;;4.47;2.45;;;;;;;;;;4989329;28;99539;-71
2022/09/01 04:55:47;;;;;;;6.35;2.60;;;;;;;;;;4989932;28;98548;-70
2022/09/01 04:58:17;;;;;;;2.10;2.00;;;;;;;;;;5022939;28;102088;-70
2022/09/01 05:00:46;;;;;;;2.55;2.45;;;;;;;;;;4988921;28;101358;-70
2022/09/01 05:03:20;;;;;;;5.75;3.00;;;;;;;;;;4988455;28;98630;-70
2022/09/01 05:06:13;;;;;;;3.67;2.70;;;;;;;;;;4973059;28;99309;-70
2022/09/01 05:08:45;;;;;;;4.00;2.80;;;;;;;;;;4988565;28;99047;-70
2022/09/01 05:11:22;;;;;;;4.03;2.30;;;;;;;;;;5021695;28;101342;-70
2022/09/01 05:13:56;;;;;;;4.38;3.08;;;;;;;;;;4989489;28;100241;-70
2022/09/01 05:16:24;;;;;;;2.60;2.40;;;;;;;;;;4988259;28;100661;-70
2022/09/01 05:18:55;;;;;;;2.92;2.65;;;;;;;;;;5021834;28;99900;-70
2022/09/01 05:21:25;;;;;;;2.70;2.50;;;;;;;;;;4988780;28;101917;-69
2022/09/01 05:23:53;;;;;;;3.55;2.88;;;;;;;;;;4988660;28;97761;-69
2022/09/01 05:26:21;;;;;;;3.97;2.30;;;;;;;;;;4989259;28;98667;-69
2022/09/01 05:28:54;;;;;;;4.65;2.60;;;;;;;;;;4991910;28;99281;-71
2022/09/01 05:31:22;;;;;;;3.80;2.08;;;;;;;;;;4988233;28;99253;-73
2022/09/01 05:33:49;;;;;;;5.75;2.17;;;;;;;;;;4989305;28;99278;-70
2022/09/01 05:36:18;;;;;;;5.00;2.53;;;;;;;;;;4991849;28;98603;-70
2022/09/01 05:38:46;;;;;;;2.97;2.13;;;;;;;;;;4991582;28;101251;-70
2022/09/01 05:41:16;;;;;;;3.03;2.17;;;;;;;;;;4991701;28;101304;-70
2022/09/01 05:43:50;;;;;;;3.75;2.50;;;;;;;;;;4991270;28;99913;-70
2022/09/01 05:46:25;;;;;;;5.85;2.20;;;;;;;;;;4991031;28;101117;-72
2022/09/01 05:48:52;;;;;;;4.40;2.47;;;;;;;;;;4986125;28;101029;-69
2022/09/01 05:51:25;;;;;;;2.45;2.00;;;;;;;;;;4993278;28;99279;-69
2022/09/01 05:54:10;;;;;;;4.28;2.03;;;;;;;;;;4991471;28;102227;-70
2022/09/01 05:56:39;;;;;;;2.53;2.15;;;;;;;;;;4991949;28;99420;-69
2022/09/01 05:59:11;;;;;;;8.43;3.72;;;;;;;;;;4990191;28;101937;-69
2022/09/01 06:01:59;;;;;;;3.42;2.00;;;;;;;;;;5010421;28;99783;-69
2022/09/01 06:04:26;;;;;;;4.63;2.22;;;;;;;;;;5008977;28;99094;-69
2022/09/01 06:06:59;;;;;;;6.65;2.13;;;;;;;;;;4999633;28;101184;-70
2022/09/01 06:09:38;;;;;;;8.50;2.10;;;;;;;;;;5010205;28;101009;-70
2022/09/01 06:12:05;;;;;;;4.40;1.90;;;;;;;;;;4991676;28;98651;-70
2022/09/01 06:14:32;;;;;;;4.72;2.72;;;;;;;;;;4994424;28;101188;-70
2022/09/01 06:16:59;;;;;;;4.38;1.90;;;;;;;;;;4993166;28;98456;-69
2022/09/01 06:19:26;;;;;;;5.38;2.42;;;;;;;;;;4991713;28;100743;-69
2022/09/01 06:21:52;;;;;;;6.10;2.20;;;;;;;;;;4990531;28;102607;-70
2022/09/01 06:24:18;;;;;;;8.30;2.28;;;;;;;;;;4991876;28;98502;-69
2022/09/01 06:26:45;;;;;;;2.60;2.22;;;;;;;;;;4991573;28;99748;-70
2022/09/01 06:29:14;;;;;;;2.50;2.30;;;;;;;;;;4991965;28;100059;-70
2022/09/01 06:31:50;;;;;;;2.28;2.00;;;;;;;;;;4982518;28;100382;-69
2022/09/01 06:34:18;;;;;;;6.20;2.08;;;;;;;;;;4977817;28;100884;-69
2022/09/01 06:36:47;;;;;;;2.70;1.90;;;;;;;;;;4982836;28;99194;-69
2022/09/01 06:39:18;;;;;;;10.18;2.60;;;;;;;;;;4982398;28;101504;-69
2022/09/01 06:41:51;;;;;;;5.55;2.17;;;;;;;;;;4979022;28;101171;-69
2022/09/01 06:44:23;;;;;;;6.22;2.40;;;;;;;;;;4991727;28;98669;-69
2022/09/01 06:46:58;;;;;;;5.03;2.13;;;;;;;;;;4972239;28;101529;-70
2022/09/01 06:49:31;;;;;;;2.88;2.10;;;;;;;;;;4983355;28;101109;-70
2022/09/01 06:51:58;;;;;;;4.43;2.40;;;;;;;;;;4986478;28;100173;-69
2022/09/01 06:54:26;;;;;;;6.85;1.77;;;;;;;;;;4977205;28;101280;-69
2022/09/01 06:56:52;;;;;;;5.90;2.00;;;;;;;;;;4981617;28;101030;-69
2022/09/01 06:59:20;;;;;;;2.85;2.10;;;;;;;;;;4993106;28;98557;-69
2022/09/01 07:01:51;;;;;;;4.38;1.88;;;;;;;;;;4978001;28;101928;-69
2022/09/01 07:04:25;;;;;;;1.65;1.55;;;;;;;;;;4991457;28;98041;-69
2022/09/01 07:06:56;;;;;;;7.68;2.78;;;;;;;;;;4986847;28;98557;-70
2022/09/01 07:09:57;;;;;;;1.80;1.70;;;;;;;;;;4927615;28;98937;-70
2022/09/01 07:12:51;;;;;;;2.83;1.95;;;;;;;;;;4976588;28;99328;-69
2022/09/01 07:15:40;;;;;;;5.43;1.40;;;;;;;;;;5004537;28;100612;-69
2022/09/01 07:18:31;;;;;;;5.47;2.00;;;;;;;;;;4970160;28;101382;-69
2022/09/01 07:20:59;;;;;;;1.73;1.63;;;;;;;;;;4985261;28;99264;-69
2022/09/01 07:23:47;;;;;;;9.85;1.50;;;;;;;;;;5018390;28;101975;-70
2022/09/01 07:26:34;;;;;;;2.30;1.50;;;;;;;;;;4987840;28;98602;-70
2022/09/01 07:29:02;;;;;;;11.50;1.80;;;;;;;;;;4987489;28;100163;-70
2022/09/01 07:31:37;;;;;;;6.22;1.90;;;;;;;;;;4986947;28;98540;-70
2022/09/01 07:34:25;;;;;;;3.83;1.70;;;;;;;;;;4987486;28;98523;-70
2022/09/01 07:37:12;;;;;;;2.03;1.63;;;;;;;;;;4987712;28;99022;-70
2022/09/01 07:39:59;;;;;;;1.70;1.50;;;;;;;;;;4986203;28;103094;-70
2022/09/01 07:43:19;;;;;;;4.90;1.58;;;;;;;;;;4971906;28;98538;-70
2022/09/01 07:46:15;;;;;;;5.38;1.20;;;;;;;;;;4973943;28;98575;-71
2022/09/01 07:49:02;;;;;;;4.25;1.40;;;;;;;;;;4987338;28;98604;-71
2022/09/01 07:51:50;;;;;;;3.00;1.67;;;;;;;;;;4986510;28;98539;-70
2022/09/01 07:54:18;;;;;;;3.60;1.40;;;;;;;;;;4971900;28;99068;-71
2022/09/01 07:56:46;;;;;;;6.45;1.60;;;;;;;;;;4987002;28;99089;-70
2022/09/01 07:59:13;;;;;;;1.70;1.40;;;;;;;;;;4987150;28;101119;-70
2022/09/01 08:02:07;;;;;;;4.75;1.50;;;;;;;;;;4974814;28;99104;-70
2022/09/01 08:04:33;;;;;;;1.40;1.27;;;;;;;;;;5003988;28;98569;-70
2022/09/01 08:07:01;;;;;;;5.57;1.58;;;;;;;;;;5002638;28;101800;-70
2022/09/01 08:09:28;;;;;;;6.97;1.80;;;;;;;;;;4989878;28;101745;-70
2022/09/01 08:12:06;;;;;;;1.83;1.40;;;;;;;;;;4971764;28;99835;-70
2022/09/01 08:14:36;;;;;;;6.07;1.58;;;;;;;;;;4986058;28;101533;-70
2022/09/01 08:17:04;;;;;;;2.40;1.50;;;;;;;;;;4986708;28;98553;-70
2022/09/01 08:19:52;;;;;;;2.78;1.73;;;;;;;;;;4985907;28;99210;-69
2022/09/01 08:22:31;;;;;;;2.47;1.40;;;;;;;;;;4986418;28;101580;-69
2022/09/01 08:25:04;;;;;;;1.87;1.77;;;;;;;;;;4987372;28;97879;-69
2022/09/01 08:27:32;;;;;;;1.50;1.40;;;;;;;;;;4986148;28;99266;-69
2022/09/01 08:29:59;;;;;;;2.92;1.75;;;;;;;;;;4985680;28;99226;-69
2022/09/01 08:32:26;;;;;;;1.83;1.40;;;;;;;;;;4989728;28;99243;-69
2022/09/01 08:34:53;;;;;;;2.90;1.55;;;;;;;;;;4987790;28;101215;-69
2022/09/01 08:37:20;;;;;;;7.40;2.13;;;;;;;;;;4991220;28;98456;-69
2022/09/01 08:39:48;;;;;;;3.70;1.23;;;;;;;;;;4989596;28;99092;-69
2022/09/01 08:42:23;;;;;;;3.00;1.10;;;;;;;;;;4988591;28;99572;-69
2022/09/01 08:45:01;;;;;;;1.60;1.30;;;;;;;;;;4989524;28;98556;-69
2022/09/01 08:47:29;;;;;;;1.80;1.33;;;;;;;;;;4989706;28;98575;-69
2022/09/01 08:50:16;;;;;;;4.63;1.50;;;;;;;;;;4989524;28;98629;-69
2022/09/01 08:53:06;;;;;;;2.92;1.30;;;;;;;;;;4990214;28;98524;-69
2022/09/01 08:55:40;;;;;;;10.25;1.35;;;;;;;;;;4991879;28;99217;-69
2022/09/01 08:58:09;;;;;;;1.27;1.25;;;;;;;;;;5022700;28;99341;-70
2022/09/01 09:01:00;;;;;;;3.60;1.20;;;;;;;;;;4990473;28;99477;-70
2022/09/01 09:03:33;;;;;;;4.70;1.40;;;;;;;;;;4989676;28;100306;-69
2022/09/01 09:06:07;;;;;;;1.45;1.25;;;;;;;;;;4990790;28;98458;-69
2022/09/01 09:08:52;;;;;;;3.10;1.00;;;;;;;;;;4991235;28;98881;-69
2022/09/01 09:11:39;;;;;;;2.70;1.00;;;;;;;;;;4995662;28;100279;-69
2022/09/01 09:14:06;;;;;;;5.05;1.40;;;;;;;;;;4997378;28;98941;-69
2022/09/01 09:16:39;;;;;;;1.27;1.23;;;;;;;;;;5000306;28;98854;-69
2022/09/01 09:19:20;;;;;;;1.67;0.90;;;;;;;;;;4997378;28;98541;-69
2022/09/01 09:21:48;;;;;;;2.92;1.55;;;;;;;;;;4997461;28;99145;-69
2022/09/01 09:24:14;;;;;;;0.93;0.93;;;;;;;;;;4995439;28;100115;-70
2022/09/01 09:26:48;;;;;;;1.33;1.20;;;;;;;;;;4996934;28;98514;-70
2022/09/01 09:29:15;;;;;;;2.05;1.35;;;;;;;;;;4997436;28;99966;-70
2022/09/01 09:31:44;;;;;;;3.53;1.10;;;;;;;;;;4995757;28;100187;-69
2022/09/01 09:34:28;;;;;;;1.00;0.93;;;;;;;;;;4997093;28;99345;-69
2022/09/01 09:36:54;;;;;;;2.50;1.00;;;;;;;;;;4996269;28;99897;-69
2022/09/01 09:39:22;;;;;;;1.27;0.88;;;;;;;;;;4999674;28;99436;-70
2022/09/01 09:42:01;;;;;;;0.93;0.90;;;;;;;;;;4997047;28;98926;-70
2022/09/01 09:44:29;;;;;;;1.05;1.05;;;;;;;;;;4995563;28;99666;-69
2022/09/01 09:46:56;;;;;;;5.65;1.33;;;;;;;;;;4996663;28;98390;-69
2022/09/01 09:49:25;;;;;;;1.33;1.02;;;;;;;;;;4996169;28;99135;-70
2022/09/01 09:52:08;;;;;;;4.25;1.23;;;;;;;;;;4995675;28;99564;-70
2022/09/01 09:54:36;;;;;;;5.13;1.02;;;;;;;;;;4996841;28;98521;-69
2022/09/01 09:57:08;;;;;;;2.15;1.10;;;;;;;;;;4996401;28;99140;-70
2022/09/01 09:59:37;;;;;;;1.35;1.25;;;;;;;;;;4995699;28;100230;-69
2022/09/01 10:02:30;;;;;;;0.90;0.80;;;;;;;;;;5000210;28;98596;-69
2022/09/01 10:04:58;;;;;;;3.05;1.00;;;;;;;;;;4996703;28;99348;-70
2022/09/01 10:07:27;;;;;;;3.08;1.23;;;;;;;;;;4996360;28;97753;-70
2022/09/01 10:09:54;;;;;;;1.30;0.98;;;;;;;;;;4996233;28;99159;-69
2022/09/01 10:12:23;;;;;;;2.53;1.05;;;;;;;;;;4995616;28;100236;-69
2022/09/01 10:14:51;;;;;;;0.73;0.73;;;;;;;;;;4995691;28;99209;-69
2022/09/01 10:17:24;;;;;;;5.43;1.20;;;;;;;;;;4996491;28;100661;-70
2022/09/01 10:19:54;;;;;;;5.15;1.05;;;;;;;;;;4994759;28;99323;-69
2022/09/01 10:22:22;;;;;;;3.33;1.05;;;;;;;;;;4992827;28;98617;-69
2022/09/01 10:24:48;;;;;;;1.00;0.90;;;;;;;;;;4995367;28;99285;-69
2022/09/01 10:27:21;;;;;;;5.43;1.08;;;;;;;;;;4992711;28;98484;-70
2022/09/01 10:29:48;;;;;;;;;;;;;;;;;;4993026;28;99146;-69
2022/09/01 10:32:16;;;;;;;1.00;1.00;;;;;;;;;;4993501;28;129758;-69
2022/09/01 10:35:03;;;;;;;0.90;0.90;;;;;;;;;;4982271;28;98595;-69
2022/09/01 10:37:30;;;;;;;3.95;1.00;;;;;;;;;;4972843;28;98956;-70
2022/09/01 10:40:15;;;;;;;1.90;1.10;;;;;;;;;;4971163;28;100109;-69
2022/09/01 10:42:54;;;;;;;3.00;0.90;;;;;;;;;;4972435;28;98546;-69
2022/09/01 10:45:41;;;;;;;1.63;1.30;;;;;;;;;;4973313;28;100068;-69
2022/09/01 10:48:20;;;;;;;2.92;0.93;;;;;;;;;;4974907;28;99462;-70
2022/09/01 10:51:14;;;;;;;1.05;1.05;;;;;;;;;;4972691;28;100125;-70
2022/09/01 10:53:47;;;;;;;1.70;0.85;;;;;;;;;;4972178;28;100500;-69
2022/09/01 10:56:13;;;;;;;6.45;1.05;;;;;;;;;;4972292;28;98590;-69
2022/09/01 10:59:05;;;;;;;5.68;0.90;;;;;;;;;;4972846;28;100033;-69
2022/09/01 11:01:51;;;;;;;1.30;1.20;;;;;;;;;;4971306;28;100895;-70
2022/09/01 11:04:21;;;;;;;17.17;1.00;;;;;;;;;;4972488;28;98553;-69
2022/09/01 11:06:52;;;;;;;3.17;0.93;;;;;;;;;;4971882;28;100227;-69
2022/09/01 11:09:40;;;;;;;1.33;1.23;;;;;;;;;;4971246;28;100533;-70
2022/09/01 11:12:12;;;;;;;1.98;1.27;;;;;;;;;;4975862;28;98572;-69
2022/09/01 11:14:52;;;;;;;1.40;0.98;;;;;;;;;;4971542;28;99326;-70
2022/09/01 11:17:24;;;;;;;2.50;0.80;;;;;;;;;;4971516;28;98518;-69
2022/09/01 11:20:08;;;;;;;2.35;1.05;;;;;;;;;;4972616;28;98407;-69
2022/09/01 11:22:40;;;;;;;1.52;0.95;;;;;;;;;;4970879;28;99532;-70
2022/09/01 11:25:06;;;;;;;2.83;1.00;;;;;;;;;;4972597;28;98648;-70
2022/09/01 11:27:46;;;;;;;0.60;0.60;;;;;;;;;;4972386;28;99217;-70
2022/09/01 11:30:17;;;;;;;0.80;0.80;;;;;;;;;;4971301;28;100111;-70
2022/09/01 11:32:46;;;;;;;6.63;1.00;;;;;;;;;;4974645;28;99250;-69
2022/09/01 11:35:20;;;;;;;1.55;0.95;;;;;;;;;;4971540;28;100384;-69
2022/09/01 11:37:50;;;;;;;1.45;1.30;;;;;;;;;;4969954;28;98843;-69
2022/09/01 11:40:29;;;;;;;5.07;1.17;;;;;;;;;;4970867;28;100015;-69
2022/09/01 11:43:00;;;;;;;1.02;0.90;;;;;;;;;;4970125;28;99662;-69
2022/09/01 11:45:31;;;;;;;3.90;1.13;;;;;;;;;;4970313;28;98739;-70
2022/09/01 11:48:01;;;;;;;1.77;0.98;;;;;;;;;;4971016;28;99282;-70
2022/09/01 11:50:31;;;;;;;3.50;1.50;;;;;;;;;;4971552;28;99723;-70
2022/09/01 11:52:59;;;;;;;2.50;0.77;;;;;;;;;;5003296;28;99439;-70
2022/09/01 11:55:34;;;;;;;3.80;0.93;;;;;;;;;;4974518;28;99244;-70
2022/09/01 11:58:01;;;;;;;0.93;0.88;;;;;;;;;;4970522;28;99222;-70
2022/09/01 12:00:30;;;;;;;0.70;0.70;;;;;;;;;;4971819;28;100713;-69
2022/09/01 12:02:56;;;;;;;0.82;0.82;;;;;;;;;;4970482;28;99644;-70
2022/09/01 12:05:30;;;;;;;0.77;0.77;;;;;;;;;;4971085;28;98537;-69
2022/09/01 12:07:57;;;;;;;1.55;1.13;;;;;;;;;;4971857;28;99315;-69
2022/09/01 12:10:29;;;;;;;0.80;0.80;;;;;;;;;;4971134;28;100594;-70
2022/09/01 12:13:09;;;;;;;3.55;0.95;;;;;;;;;;4970562;28;98512;-69
2022/09/01 12:15:41;;;;;;;4.18;0.85;;;;;;;;;;4972519;28;99842;-70
2022/09/01 12:18:42;;;;;;;2.47;0.98;;;;;;;;;;4974501;28;100242;-70
2022/09/01 12:21:15;;;;;;;0.77;0.77;;;;;;;;;;4971899;28;99258;-69
2022/09/01 12:23:42;;;;;;;0.98;0.77;;;;;;;;;;4970489;28;100944;-69
2022/09/01 12:26:11;;;;;;;0.80;0.80;;;;;;;;;;4970788;28;98552;-69
2022/09/01 12:28:40;;;;;;;0.88;0.88;;;;;;;;;;4970924;28;99539;-70
2022/09/01 12:31:14;;;;;;;3.05;1.00;;;;;;;;;;4971278;28;100178;-70
2022/09/01 12:33:44;;;;;;;2.72;1.08;;;;;;;;;;4970432;28;98724;-69
2022/09/01 12:36:15;;;;;;;4.30;0.90;;;;;;;;;;4971068;28;100661;-69
2022/09/01 12:38:41;;;;;;;1.83;0.90;;;;;;;;;;4970776;28;100254;-69
2022/09/01 12:41:24;;;;;;;3.58;1.17;;;;;;;;;;4974514;28;97775;-69
2022/09/01 12:43:51;;;;;;;2.90;0.98;;;;;;;;;;4971164;28;100258;-69
2022/09/01 12:46:39;;;;;;;3.67;1.10;;;;;;;;;;4970673;28;98677;-69
2022/09/01 12:49:15;;;;;;;0.98;0.70;;;;;;;;;;4969893;28;99943;-69
2022/09/01 12:51:41;;;;;;;0.90;0.90;;;;;;;;;;4970586;28;100267;-69
2022/09/01 12:54:09;;;;;;;2.75;0.88;;;;;;;;;;4970875;28;98902;-70
2022/09/01 12:56:37;;;;;;;4.90;1.00;;;;;;;;;;4971299;28;99890;-69
2022/09/01 12:59:19;;;;;;;2.95;1.00;;;;;;;;;;4970774;28;100459;-70
2022/09/01 13:02:21;;;;;;;3.70;1.00;;;;;;;;;;4971242;28;98613;-69
2022/09/01 13:04:48;;;;;;;1.52;1.00;;;;;;;;;;4973674;28;99216;-69
2022/09/01 13:07:14;;;;;;;2.08;1.35;;;;;;;;;;4972143;28;97764;-69
2022/09/01 13:09:40;;;;;;;2.22;1.02;;;;;;;;;;4970131;28;99035;-69
2022/09/01 13:12:11;;;;;;;1.60;1.50;;;;;;;;;;4970950;28;99564;-69
2022/09/01 13:14:37;;;;;;;1.92;1.10;;;;;;;;;;4970282;28;99235;-69
2022/09/01 13:17:04;;;;;;;1.85;0.95;;;;;;;;;;4970253;28;100688;-69
2022/09/01 13:19:39;;;;;;;4.35;1.05;;;;;;;;;;4970606;28;99566;-70
2022/09/01 13:22:06;;;;;;;1.33;1.00;;;;;;;;;;4969830;28;98529;-69
2022/09/01 13:24:32;;;;;;;3.03;1.10;;;;;;;;;;4970677;28;99924;-70
2022/09/01 13:27:00;;;;;;;1.60;0.70;;;;;;;;;;4974085;28;99442;-69
2022/09/01 13:29:46;;;;;;;0.95;0.90;;;;;;;;;;4969709;28;99797;-70
2022/09/01 13:32:13;;;;;;;1.50;1.40;;;;;;;;;;4971257;28;99489;-70
2022/09/01 13:34:45;;;;;;;3.10;1.13;;;;;;;;;;4970428;28;99193;-69
2022/09/01 13:37:11;;;;;;;1.08;0.98;;;;;;;;;;4969551;28;99405;-69
2022/09/01 13:39:38;;;;;;;1.88;0.95;;;;;;;;;;4969503;28;100932;-70
2022/09/01 13:42:04;;;;;;;0.95;0.85;;;;;;;;;;4970678;28;98633;-70
2022/09/01 13:44:32;;;;;;;1.10;1.00;;;;;;;;;;4969896;28;99871;-69
2022/09/01 13:46:58;;;;;;;1.85;1.08;;;;;;;;;;4972654;28;99605;-69
2022/09/01 13:49:25;;;;;;;6.78;1.50;;;;;;;;;;4970749;28;100159;-69
2022/09/01 13:52:12;;;;;;;1.88;1.15;;;;;;;;;;4969488;28;100193;-70
2022/09/01 13:54:38;;;;;;;4.57;1.10;;;;;;;;;;4970567;28;98475;-69
2022/09/01 13:57:05;;;;;;;2.13;1.10;;;;;;;;;;4973430;28;99926;-70
2022/09/01 13:59:32;;;;;;;2.25;1.10;;;;;;;;;;4973022;28;100170;-70
2022/09/01 14:01:59;;;;;;;2.47;1.08;;;;;;;;;;4973454;28;98514;-69
2022/09/01 14:04:26;;;;;;;4.43;1.23;;;;;;;;;;4972812;28;99618;-70
2022/09/01 14:06:53;;;;;;;1.75;1.23;;;;;;;;;;4972966;28;100594;-69
2022/09/01 14:09:20;;;;;;;6.68;1.30;;;;;;;;;;4976826;28;98437;-70
2022/09/01 14:11:46;;;;;;;4.35;1.15;;;;;;;;;;4972418;28;100425;-69
2022/09/01 14:14:13;;;;;;;1.67;1.02;;;;;;;;;;4973614;28;98471;-69
2022/09/01 14:16:39;;;;;;;5.35;1.17;;;;;;;;;;4973267;28;99946;-69
2022/09/01 14:19:05;;;;;;;2.72;1.13;;;;;;;;;;4972521;28;100189;-70
2022/09/01 14:21:32;;;;;;;3.20;1.38;;;;;;;;;;4973418;28;97810;-70
2022/09/01 14:23:58;;;;;;;3.40;1.00;;;;;;;;;;4973511;28;98519;-69
2022/09/01 14:26:26;;;;;;;3.10;1.20;;;;;;;;;;4972192;28;100271;-70
2022/09/01 14:28:53;;;;;;;2.85;1.00;;;;;;;;;;4973178;28;99257;-69
2022/09/01 14:31:20;;;;;;;1.38;1.30;;;;;;;;;;4976126;28;100727;-70
2022/09/01 14:33:47;;;;;;;4.82;1.27;;;;;;;;;;4972198;28;98509;-69
2022/09/01 14:36:19;;;;;;;1.05;0.80;;;;;;;;;;4972740;28;99975;-69
2022/09/01 14:38:45;;;;;;;3.47;0.90;;;;;;;;;;4972464;28;100296;-69
2022/09/01 14:41:12;;;;;;;5.25;1.08;;;;;;;;;;4972459;28;98831;-70
2022/09/01 14:43:41;;;;;;;3.00;1.10;;;;;;;;;;4972904;28;100090;-70
2022/09/01 14:46:09;;;;;;;3.25;1.63;;;;;;;;;;4973058;28;98419;-70
2022/09/01 14:48:36;;;;;;;3.50;1.10;;;;;;;;;;4972459;28;98505;-70
2022/09/01 14:51:03;;;;;;;0.82;0.82;;;;;;;;;;4972917;28;100129;-69
2022/09/01 14:53:30;;;;;;;2.40;1.10;;;;;;;;;;4974649;28;100247;-70
2022/09/01 14:55:57;;;;;;;3.65;1.02;;;;;;;;;;4973053;28;99867;-69
2022/09/01 14:58:25;;;;;;;4.35;1.25;;;;;;;;;;4972439;28;100270;-70
2022/09/01 15:00:54;;;;;;;3.38;1.33;;;;;;;;;;4971623;28;98464;-69
2022/09/01 15:03:33;;;;;;;7.07;1.40;;;;;;;;;;4972976;28;99975;-69
2022/09/01 15:05:59;;;;;;;1.50;0.90;;;;;;;;;;4972148;28;100303;-69
2022/09/01 15:08:25;;;;;;;4.68;1.05;;;;;;;;;;4971227;28;98538;-70